sensor_id;sensor_type;location;lat;lon;timestamp;P1;durP1;ratioP1;P2;durP2;ratioP2
34876;SDS011;21086;44.780;17.194;2024-01-15T00:00:39;120.00;;;59.65;;
34876;SDS011;21086;44.780;17.194;2024-01-15T00:03:07;134.80;;;62.45;;
34876;SDS011;21086;44.780;17.194;2024-01-15T00:05:34;128.30;;;60.45;;
34876;SDS011;21086;44.780;17.194;2024-01-15T00:08:01;146.05;;;63.70;;
34876;SDS011;21086;44.780;17.194;2024-01-15T00:10:28;114.25;;;52.60;;
34876;SDS011;21086;44.780;17.194;2024-01-15T00:12:55;88.47;;;42.47;;
34876;SDS011;21086;44.780;17.194;2024-01-15T00:15:22;81.00;;;38.70;;
34876;SDS011;21086;44.780;17.194;2024-01-15T00:17:50;81.18;;;35.45;;
34876;SDS011;21086;44.780;17.194;2024-01-15T00:20:17;73.15;;;32.63;;
34876;SDS011;21086;44.780;17.194;2024-01-15T00:22:44;65.45;;;30.80;;
34876;SDS011;21086;44.780;17.194;2024-01-15T00:25:11;64.57;;;31.33;;
34876;SDS011;21086;44.780;17.194;2024-01-15T00:27:38;63.22;;;29.48;;
34876;SDS011;21086;44.780;17.194;2024-01-15T00:30:05;54.42;;;26.70;;
34876;SDS011;21086;44.780;17.194;2024-01-15T00:32:33;55.35;;;25.48;;
34876;SDS011;21086;44.780;17.194;2024-01-15T00:35:00;43.28;;;21.60;;
34876;SDS011;21086;44.780;17.194;2024-01-15T00:37:27;47.85;;;22.67;;
34876;SDS011;21086;44.780;17.194;2024-01-15T00:39:54;35.63;;;18.58;;
34876;SDS011;21086;44.780;17.194;2024-01-15T00:42:21;44.55;;;19.70;;
34876;SDS011;21086;44.780;17.194;2024-01-15T00:44:49;36.13;;;16.67;;
34876;SDS011;21086;44.780;17.194;2024-01-15T00:47:18;44.80;;;21.70;;
34876;SDS011;21086;44.780;17.194;2024-01-15T00:49:45;48.35;;;24.08;;
34876;SDS011;21086;44.780;17.194;2024-01-15T00:52:12;47.47;;;23.40;;
34876;SDS011;21086;44.780;17.194;2024-01-15T00:54:39;49.60;;;22.70;;
34876;SDS011;21086;44.780;17.194;2024-01-15T00:57:06;52.25;;;26.00;;
34876;SDS011;21086;44.780;17.194;2024-01-15T00:59:33;52.78;;;24.38;;
34876;SDS011;21086;44.780;17.194;2024-01-15T01:02:00;48.45;;;23.95;;
34876;SDS011;21086;44.780;17.194;2024-01-15T01:04:29;39.42;;;21.65;;
34876;SDS011;21086;44.780;17.194;2024-01-15T01:06:56;48.95;;;23.77;;
34876;SDS011;21086;44.780;17.194;2024-01-15T01:09:23;42.40;;;22.40;;
34876;SDS011;21086;44.780;17.194;2024-01-15T01:11:51;39.50;;;18.70;;
34876;SDS011;21086;44.780;17.194;2024-01-15T01:14:17;33.75;;;16.92;;
34876;SDS011;21086;44.780;17.194;2024-01-15T01:16:44;35.25;;;17.40;;
34876;SDS011;21086;44.780;17.194;2024-01-15T01:19:11;32.35;;;16.23;;
34876;SDS011;21086;44.780;17.194;2024-01-15T01:21:39;29.33;;;14.20;;
34876;SDS011;21086;44.780;17.194;2024-01-15T01:24:06;26.02;;;13.20;;
34876;SDS011;21086;44.780;17.194;2024-01-15T01:26:33;28.80;;;14.07;;
34876;SDS011;21086;44.780;17.194;2024-01-15T01:29:00;23.38;;;12.13;;
34876;SDS011;21086;44.780;17.194;2024-01-15T01:31:27;20.50;;;11.05;;
34876;SDS011;21086;44.780;17.194;2024-01-15T01:33:56;34.08;;;16.10;;
34876;SDS011;21086;44.780;17.194;2024-01-15T01:36:23;29.67;;;14.77;;
34876;SDS011;21086;44.780;17.194;2024-01-15T01:38:50;34.42;;;14.00;;
34876;SDS011;21086;44.780;17.194;2024-01-15T01:41:17;38.55;;;17.10;;
34876;SDS011;21086;44.780;17.194;2024-01-15T01:43:44;22.40;;;10.55;;
34876;SDS011;21086;44.780;17.194;2024-01-15T01:46:11;17.38;;;9.95;;
34876;SDS011;21086;44.780;17.194;2024-01-15T01:48:38;19.63;;;10.80;;
34876;SDS011;21086;44.780;17.194;2024-01-15T01:51:06;20.73;;;10.43;;
34876;SDS011;21086;44.780;17.194;2024-01-15T01:53:34;12.88;;;6.78;;
34876;SDS011;21086;44.780;17.194;2024-01-15T01:56:02;16.35;;;8.32;;
34876;SDS011;21086;44.780;17.194;2024-01-15T01:58:31;23.60;;;11.70;;
34876;SDS011;21086;44.780;17.194;2024-01-15T02:00:59;23.38;;;12.80;;
34876;SDS011;21086;44.780;17.194;2024-01-15T02:03:27;22.67;;;11.82;;
34876;SDS011;21086;44.780;17.194;2024-01-15T02:05:55;23.45;;;12.57;;
34876;SDS011;21086;44.780;17.194;2024-01-15T02:08:23;16.33;;;8.63;;
34876;SDS011;21086;44.780;17.194;2024-01-15T02:10:51;34.72;;;15.13;;
34876;SDS011;21086;44.780;17.194;2024-01-15T02:13:18;11.15;;;5.60;;
34876;SDS011;21086;44.780;17.194;2024-01-15T02:15:46;8.95;;;4.53;;
34876;SDS011;21086;44.780;17.194;2024-01-15T02:18:15;11.05;;;5.30;;
34876;SDS011;21086;44.780;17.194;2024-01-15T02:20:42;10.80;;;5.43;;
34876;SDS011;21086;44.780;17.194;2024-01-15T02:23:11;9.02;;;4.03;;
34876;SDS011;21086;44.780;17.194;2024-01-15T02:25:43;7.15;;;3.80;;
34876;SDS011;21086;44.780;17.194;2024-01-15T02:28:13;9.45;;;5.47;;
34876;SDS011;21086;44.780;17.194;2024-01-15T02:30:41;12.52;;;6.68;;
34876;SDS011;21086;44.780;17.194;2024-01-15T02:33:12;15.93;;;8.55;;
34876;SDS011;21086;44.780;17.194;2024-01-15T02:35:40;11.55;;;6.78;;
34876;SDS011;21086;44.780;17.194;2024-01-15T02:38:07;13.10;;;6.32;;
34876;SDS011;21086;44.780;17.194;2024-01-15T02:40:35;16.67;;;8.70;;
34876;SDS011;21086;44.780;17.194;2024-01-15T02:43:02;23.13;;;11.55;;
34876;SDS011;21086;44.780;17.194;2024-01-15T02:45:29;24.02;;;12.55;;
34876;SDS011;21086;44.780;17.194;2024-01-15T02:47:56;23.95;;;13.20;;
34876;SDS011;21086;44.780;17.194;2024-01-15T02:50:23;20.13;;;9.75;;
34876;SDS011;21086;44.780;17.194;2024-01-15T02:52:51;19.80;;;11.55;;
34876;SDS011;21086;44.780;17.194;2024-01-15T02:55:18;20.33;;;11.45;;
34876;SDS011;21086;44.780;17.194;2024-01-15T02:57:45;18.05;;;9.88;;
34876;SDS011;21086;44.780;17.194;2024-01-15T03:00:12;20.60;;;10.73;;
34876;SDS011;21086;44.780;17.194;2024-01-15T03:02:40;20.40;;;10.63;;
34876;SDS011;21086;44.780;17.194;2024-01-15T03:05:13;17.08;;;9.05;;
34876;SDS011;21086;44.780;17.194;2024-01-15T03:07:40;12.15;;;7.35;;
34876;SDS011;21086;44.780;17.194;2024-01-15T03:10:08;13.45;;;7.13;;
34876;SDS011;21086;44.780;17.194;2024-01-15T03:12:35;8.68;;;5.88;;
34876;SDS011;21086;44.780;17.194;2024-01-15T03:15:02;10.27;;;5.50;;
34876;SDS011;21086;44.780;17.194;2024-01-15T03:17:30;11.20;;;5.32;;
34876;SDS011;21086;44.780;17.194;2024-01-15T03:19:57;10.27;;;5.70;;
34876;SDS011;21086;44.780;17.194;2024-01-15T03:22:24;7.32;;;3.90;;
34876;SDS011;21086;44.780;17.194;2024-01-15T03:24:52;6.55;;;3.50;;
34876;SDS011;21086;44.780;17.194;2024-01-15T03:27:19;5.68;;;2.97;;
34876;SDS011;21086;44.780;17.194;2024-01-15T03:29:46;6.30;;;2.00;;
34876;SDS011;21086;44.780;17.194;2024-01-15T03:32:13;4.15;;;1.83;;
34876;SDS011;21086;44.780;17.194;2024-01-15T03:34:42;4.72;;;2.75;;
34876;SDS011;21086;44.780;17.194;2024-01-15T03:37:09;10.82;;;4.95;;
34876;SDS011;21086;44.780;17.194;2024-01-15T03:39:36;7.03;;;3.53;;
34876;SDS011;21086;44.780;17.194;2024-01-15T03:42:03;13.10;;;5.90;;
34876;SDS011;21086;44.780;17.194;2024-01-15T03:44:30;5.05;;;2.15;;
34876;SDS011;21086;44.780;17.194;2024-01-15T03:46:57;7.90;;;2.53;;
34876;SDS011;21086;44.780;17.194;2024-01-15T03:49:24;12.10;;;6.00;;
34876;SDS011;21086;44.780;17.194;2024-01-15T03:51:52;9.10;;;5.07;;
34876;SDS011;21086;44.780;17.194;2024-01-15T03:54:19;14.60;;;7.43;;
34876;SDS011;21086;44.780;17.194;2024-01-15T03:56:46;9.30;;;5.13;;
34876;SDS011;21086;44.780;17.194;2024-01-15T03:59:13;7.13;;;3.95;;
34876;SDS011;21086;44.780;17.194;2024-01-15T04:01:40;6.72;;;3.67;;
34876;SDS011;21086;44.780;17.194;2024-01-15T04:04:07;7.85;;;3.42;;
34876;SDS011;21086;44.780;17.194;2024-01-15T04:06:34;5.95;;;2.75;;
34876;SDS011;21086;44.780;17.194;2024-01-15T04:09:02;5.40;;;2.65;;
34876;SDS011;21086;44.780;17.194;2024-01-15T04:11:29;2.65;;;1.20;;
34876;SDS011;21086;44.780;17.194;2024-01-15T04:13:56;5.32;;;2.67;;
34876;SDS011;21086;44.780;17.194;2024-01-15T04:16:23;5.93;;;3.05;;
34876;SDS011;21086;44.780;17.194;2024-01-15T04:18:50;4.60;;;2.80;;
34876;SDS011;21086;44.780;17.194;2024-01-15T04:21:17;5.05;;;1.52;;
34876;SDS011;21086;44.780;17.194;2024-01-15T04:23:45;6.32;;;3.10;;
34876;SDS011;21086;44.780;17.194;2024-01-15T04:26:12;16.30;;;8.55;;
34876;SDS011;21086;44.780;17.194;2024-01-15T04:28:39;18.75;;;9.95;;
34876;SDS011;21086;44.780;17.194;2024-01-15T04:31:06;6.03;;;3.20;;
34876;SDS011;21086;44.780;17.194;2024-01-15T04:33:34;8.13;;;4.90;;
34876;SDS011;21086;44.780;17.194;2024-01-15T04:36:02;10.00;;;4.15;;
34876;SDS011;21086;44.780;17.194;2024-01-15T04:38:30;13.75;;;7.03;;
34876;SDS011;21086;44.780;17.194;2024-01-15T04:40:57;8.45;;;4.07;;
34876;SDS011;21086;44.780;17.194;2024-01-15T04:43:24;3.80;;;1.33;;
34876;SDS011;21086;44.780;17.194;2024-01-15T04:45:51;3.90;;;1.83;;
34876;SDS011;21086;44.780;17.194;2024-01-15T04:48:18;6.78;;;3.35;;
34876;SDS011;21086;44.780;17.194;2024-01-15T04:50:46;4.63;;;1.83;;
34876;SDS011;21086;44.780;17.194;2024-01-15T04:53:13;2.67;;;1.50;;
34876;SDS011;21086;44.780;17.194;2024-01-15T04:55:40;6.07;;;3.70;;
34876;SDS011;21086;44.780;17.194;2024-01-15T04:58:07;5.85;;;2.75;;
34876;SDS011;21086;44.780;17.194;2024-01-15T05:00:34;7.70;;;3.60;;
34876;SDS011;21086;44.780;17.194;2024-01-15T05:03:01;6.10;;;2.60;;
34876;SDS011;21086;44.780;17.194;2024-01-15T05:05:29;5.05;;;2.30;;
34876;SDS011;21086;44.780;17.194;2024-01-15T05:07:56;5.18;;;1.75;;
34876;SDS011;21086;44.780;17.194;2024-01-15T05:10:23;4.50;;;2.28;;
34876;SDS011;21086;44.780;17.194;2024-01-15T05:12:50;3.45;;;2.05;;
34876;SDS011;21086;44.780;17.194;2024-01-15T05:15:17;5.00;;;2.35;;
34876;SDS011;21086;44.780;17.194;2024-01-15T05:17:44;3.35;;;1.20;;
34876;SDS011;21086;44.780;17.194;2024-01-15T05:20:11;5.07;;;1.90;;
34876;SDS011;21086;44.780;17.194;2024-01-15T05:22:38;3.05;;;1.60;;
34876;SDS011;21086;44.780;17.194;2024-01-15T05:25:05;3.05;;;1.55;;
34876;SDS011;21086;44.780;17.194;2024-01-15T05:27:33;4.28;;;2.40;;
34876;SDS011;21086;44.780;17.194;2024-01-15T05:30:00;3.22;;;1.55;;
34876;SDS011;21086;44.780;17.194;2024-01-15T05:32:27;10.40;;;5.90;;
34876;SDS011;21086;44.780;17.194;2024-01-15T05:34:54;30.38;;;17.30;;
34876;SDS011;21086;44.780;17.194;2024-01-15T05:37:21;27.38;;;16.13;;
34876;SDS011;21086;44.780;17.194;2024-01-15T05:39:48;22.77;;;14.43;;
34876;SDS011;21086;44.780;17.194;2024-01-15T05:42:15;24.40;;;15.13;;
34876;SDS011;21086;44.780;17.194;2024-01-15T05:44:42;25.90;;;13.30;;
34876;SDS011;21086;44.780;17.194;2024-01-15T05:47:09;26.80;;;14.25;;
34876;SDS011;21086;44.780;17.194;2024-01-15T05:49:36;22.38;;;12.43;;
34876;SDS011;21086;44.780;17.194;2024-01-15T05:52:03;24.40;;;13.88;;
34876;SDS011;21086;44.780;17.194;2024-01-15T05:54:31;26.45;;;15.73;;
34876;SDS011;21086;44.780;17.194;2024-01-15T05:56:58;26.08;;;14.63;;
34876;SDS011;21086;44.780;17.194;2024-01-15T05:59:25;35.00;;;18.58;;
34876;SDS011;21086;44.780;17.194;2024-01-15T06:01:52;40.05;;;21.42;;
34876;SDS011;21086;44.780;17.194;2024-01-15T06:04:19;33.17;;;17.60;;
34876;SDS011;21086;44.780;17.194;2024-01-15T06:06:46;36.80;;;18.00;;
34876;SDS011;21086;44.780;17.194;2024-01-15T06:09:13;43.33;;;23.15;;
34876;SDS011;21086;44.780;17.194;2024-01-15T06:11:40;51.72;;;26.55;;
34876;SDS011;21086;44.780;17.194;2024-01-15T06:14:07;42.45;;;21.98;;
34876;SDS011;21086;44.780;17.194;2024-01-15T06:16:34;40.22;;;20.40;;
34876;SDS011;21086;44.780;17.194;2024-01-15T06:19:01;36.55;;;18.45;;
34876;SDS011;21086;44.780;17.194;2024-01-15T06:21:29;33.30;;;16.02;;
34876;SDS011;21086;44.780;17.194;2024-01-15T06:23:56;27.17;;;14.10;;
34876;SDS011;21086;44.780;17.194;2024-01-15T06:26:23;26.33;;;13.63;;
34876;SDS011;21086;44.780;17.194;2024-01-15T06:28:51;26.92;;;14.98;;
34876;SDS011;21086;44.780;17.194;2024-01-15T06:31:18;28.33;;;16.10;;
34876;SDS011;21086;44.780;17.194;2024-01-15T06:33:45;34.22;;;19.15;;
34876;SDS011;21086;44.780;17.194;2024-01-15T06:36:15;33.42;;;18.20;;
34876;SDS011;21086;44.780;17.194;2024-01-15T06:38:45;32.78;;;18.15;;
34876;SDS011;21086;44.780;17.194;2024-01-15T06:41:12;35.40;;;19.92;;
34876;SDS011;21086;44.780;17.194;2024-01-15T06:43:39;33.88;;;18.95;;
34876;SDS011;21086;44.780;17.194;2024-01-15T06:46:06;35.65;;;19.77;;
34876;SDS011;21086;44.780;17.194;2024-01-15T06:48:34;47.33;;;24.52;;
34876;SDS011;21086;44.780;17.194;2024-01-15T06:51:02;47.33;;;24.42;;
34876;SDS011;21086;44.780;17.194;2024-01-15T06:53:29;38.20;;;22.42;;
34876;SDS011;21086;44.780;17.194;2024-01-15T06:55:56;49.45;;;27.15;;
34876;SDS011;21086;44.780;17.194;2024-01-15T06:58:23;41.70;;;23.45;;
34876;SDS011;21086;44.780;17.194;2024-01-15T07:00:50;43.45;;;22.00;;
34876;SDS011;21086;44.780;17.194;2024-01-15T07:03:17;31.50;;;16.73;;
34876;SDS011;21086;44.780;17.194;2024-01-15T07:05:44;30.52;;;16.77;;
34876;SDS011;21086;44.780;17.194;2024-01-15T07:08:11;31.48;;;16.90;;
34876;SDS011;21086;44.780;17.194;2024-01-15T07:10:38;30.67;;;18.50;;
34876;SDS011;21086;44.780;17.194;2024-01-15T07:13:05;32.22;;;20.08;;
34876;SDS011;21086;44.780;17.194;2024-01-15T07:15:33;43.03;;;24.00;;
34876;SDS011;21086;44.780;17.194;2024-01-15T07:18:00;54.58;;;28.15;;
34876;SDS011;21086;44.780;17.194;2024-01-15T07:20:27;59.28;;;30.75;;
34876;SDS011;21086;44.780;17.194;2024-01-15T07:22:54;60.78;;;33.03;;
34876;SDS011;21086;44.780;17.194;2024-01-15T07:25:21;68.32;;;33.97;;
34876;SDS011;21086;44.780;17.194;2024-01-15T07:27:48;70.40;;;38.17;;
34876;SDS011;21086;44.780;17.194;2024-01-15T07:30:15;71.53;;;37.92;;
34876;SDS011;21086;44.780;17.194;2024-01-15T07:32:42;75.70;;;39.85;;
34876;SDS011;21086;44.780;17.194;2024-01-15T07:35:09;33.58;;;17.77;;
34876;SDS011;21086;44.780;17.194;2024-01-15T07:37:37;75.00;;;41.47;;
34876;SDS011;21086;44.780;17.194;2024-01-15T07:40:04;70.65;;;38.85;;
34876;SDS011;21086;44.780;17.194;2024-01-15T07:42:34;84.32;;;47.17;;
34876;SDS011;21086;44.780;17.194;2024-01-15T07:45:02;104.47;;;54.53;;
34876;SDS011;21086;44.780;17.194;2024-01-15T07:47:29;93.63;;;49.28;;
34876;SDS011;21086;44.780;17.194;2024-01-15T07:49:56;78.00;;;41.67;;
34876;SDS011;21086;44.780;17.194;2024-01-15T07:52:28;64.70;;;35.90;;
34876;SDS011;21086;44.780;17.194;2024-01-15T07:54:57;57.65;;;33.17;;
34876;SDS011;21086;44.780;17.194;2024-01-15T07:57:26;62.28;;;33.10;;
34876;SDS011;21086;44.780;17.194;2024-01-15T07:59:53;63.63;;;38.45;;
34876;SDS011;21086;44.780;17.194;2024-01-15T08:02:20;67.95;;;39.72;;
34876;SDS011;21086;44.780;17.194;2024-01-15T08:04:48;73.30;;;42.40;;
34876;SDS011;21086;44.780;17.194;2024-01-15T08:07:15;72.22;;;39.88;;
34876;SDS011;21086;44.780;17.194;2024-01-15T08:09:42;70.57;;;39.80;;
34876;SDS011;21086;44.780;17.194;2024-01-15T08:12:09;71.18;;;40.33;;
34876;SDS011;21086;44.780;17.194;2024-01-15T08:14:36;60.50;;;33.63;;
34876;SDS011;21086;44.780;17.194;2024-01-15T08:17:03;59.83;;;34.17;;
34876;SDS011;21086;44.780;17.194;2024-01-15T08:19:31;59.20;;;33.67;;
34876;SDS011;21086;44.780;17.194;2024-01-15T08:21:58;66.40;;;38.75;;
34876;SDS011;21086;44.780;17.194;2024-01-15T08:24:25;69.22;;;39.10;;
34876;SDS011;21086;44.780;17.194;2024-01-15T08:26:52;71.32;;;41.78;;
34876;SDS011;21086;44.780;17.194;2024-01-15T08:29:19;70.40;;;41.28;;
34876;SDS011;21086;44.780;17.194;2024-01-15T08:31:47;130.00;;;69.68;;
34876;SDS011;21086;44.780;17.194;2024-01-15T08:34:14;86.68;;;49.03;;
34876;SDS011;21086;44.780;17.194;2024-01-15T08:36:42;70.03;;;43.60;;
34876;SDS011;21086;44.780;17.194;2024-01-15T08:39:09;71.50;;;44.22;;
34876;SDS011;21086;44.780;17.194;2024-01-15T08:41:36;77.03;;;44.95;;
34876;SDS011;21086;44.780;17.194;2024-01-15T08:44:03;90.43;;;53.38;;
34876;SDS011;21086;44.780;17.194;2024-01-15T08:46:30;93.03;;;50.17;;
34876;SDS011;21086;44.780;17.194;2024-01-15T08:48:57;90.53;;;48.47;;
34876;SDS011;21086;44.780;17.194;2024-01-15T08:51:24;76.70;;;45.75;;
34876;SDS011;21086;44.780;17.194;2024-01-15T08:53:51;82.97;;;43.88;;
34876;SDS011;21086;44.780;17.194;2024-01-15T08:56:18;80.55;;;44.78;;
34876;SDS011;21086;44.780;17.194;2024-01-15T08:58:45;88.15;;;46.17;;
34876;SDS011;21086;44.780;17.194;2024-01-15T09:01:12;79.32;;;45.22;;
34876;SDS011;21086;44.780;17.194;2024-01-15T09:03:40;71.20;;;41.05;;
34876;SDS011;21086;44.780;17.194;2024-01-15T09:06:10;79.57;;;44.17;;
34876;SDS011;21086;44.780;17.194;2024-01-15T09:08:37;75.00;;;45.33;;
34876;SDS011;21086;44.780;17.194;2024-01-15T09:11:04;76.07;;;43.67;;
34876;SDS011;21086;44.780;17.194;2024-01-15T09:13:31;84.47;;;46.42;;
34876;SDS011;21086;44.780;17.194;2024-01-15T09:15:58;69.85;;;41.30;;
34876;SDS011;21086;44.780;17.194;2024-01-15T09:18:26;75.30;;;42.42;;
34876;SDS011;21086;44.780;17.194;2024-01-15T09:20:54;82.30;;;46.80;;
34876;SDS011;21086;44.780;17.194;2024-01-15T09:23:21;75.95;;;46.10;;
34876;SDS011;21086;44.780;17.194;2024-01-15T09:25:48;88.18;;;50.00;;
34876;SDS011;21086;44.780;17.194;2024-01-15T09:28:16;86.38;;;50.47;;
34876;SDS011;21086;44.780;17.194;2024-01-15T09:30:43;83.63;;;51.03;;
34876;SDS011;21086;44.780;17.194;2024-01-15T09:33:11;88.80;;;53.25;;
34876;SDS011;21086;44.780;17.194;2024-01-15T09:35:38;96.57;;;54.65;;
34876;SDS011;21086;44.780;17.194;2024-01-15T09:38:05;89.93;;;52.88;;
34876;SDS011;21086;44.780;17.194;2024-01-15T09:40:32;94.55;;;50.40;;
34876;SDS011;21086;44.780;17.194;2024-01-15T09:43:00;84.53;;;46.70;;
34876;SDS011;21086;44.780;17.194;2024-01-15T09:45:28;77.32;;;46.70;;
34876;SDS011;21086;44.780;17.194;2024-01-15T09:47:55;97.55;;;51.88;;
34876;SDS011;21086;44.780;17.194;2024-01-15T09:50:23;83.38;;;49.58;;
34876;SDS011;21086;44.780;17.194;2024-01-15T09:52:50;87.80;;;50.20;;
34876;SDS011;21086;44.780;17.194;2024-01-15T09:55:17;89.45;;;48.83;;
34876;SDS011;21086;44.780;17.194;2024-01-15T09:57:45;85.97;;;49.03;;
34876;SDS011;21086;44.780;17.194;2024-01-15T10:00:17;69.78;;;42.40;;
34876;SDS011;21086;44.780;17.194;2024-01-15T10:02:45;82.70;;;46.30;;
34876;SDS011;21086;44.780;17.194;2024-01-15T10:05:12;90.85;;;49.53;;
34876;SDS011;21086;44.780;17.194;2024-01-15T10:07:40;82.30;;;45.47;;
34876;SDS011;21086;44.780;17.194;2024-01-15T10:10:07;79.50;;;45.97;;
34876;SDS011;21086;44.780;17.194;2024-01-15T10:12:35;78.15;;;45.33;;
34876;SDS011;21086;44.780;17.194;2024-01-15T10:15:03;80.40;;;47.28;;
34876;SDS011;21086;44.780;17.194;2024-01-15T10:17:30;82.65;;;49.10;;
34876;SDS011;21086;44.780;17.194;2024-01-15T10:19:57;87.60;;;50.05;;
34876;SDS011;21086;44.780;17.194;2024-01-15T10:22:25;104.60;;;63.28;;
34876;SDS011;21086;44.780;17.194;2024-01-15T10:24:52;116.57;;;73.30;;
34876;SDS011;21086;44.780;17.194;2024-01-15T10:27:19;112.05;;;74.68;;
34876;SDS011;21086;44.780;17.194;2024-01-15T10:29:46;90.78;;;57.95;;
34876;SDS011;21086;44.780;17.194;2024-01-15T10:32:14;84.57;;;50.70;;
34876;SDS011;21086;44.780;17.194;2024-01-15T10:34:40;79.07;;;46.50;;
34876;SDS011;21086;44.780;17.194;2024-01-15T10:37:10;80.95;;;47.45;;
34876;SDS011;21086;44.780;17.194;2024-01-15T10:39:37;80.90;;;49.38;;
34876;SDS011;21086;44.780;17.194;2024-01-15T10:42:05;72.55;;;41.80;;
34876;SDS011;21086;44.780;17.194;2024-01-15T10:44:34;71.78;;;42.80;;
34876;SDS011;21086;44.780;17.194;2024-01-15T10:47:02;75.05;;;44.30;;
34876;SDS011;21086;44.780;17.194;2024-01-15T10:49:30;161.38;;;90.78;;
34876;SDS011;21086;44.780;17.194;2024-01-15T10:52:00;98.72;;;56.22;;
34876;SDS011;21086;44.780;17.194;2024-01-15T10:54:29;109.40;;;60.40;;
34876;SDS011;21086;44.780;17.194;2024-01-15T10:56:57;94.43;;;54.03;;
34876;SDS011;21086;44.780;17.194;2024-01-15T10:59:24;98.47;;;55.33;;
34876;SDS011;21086;44.780;17.194;2024-01-15T11:01:52;101.20;;;54.63;;
34876;SDS011;21086;44.780;17.194;2024-01-15T11:04:21;137.85;;;75.10;;
34876;SDS011;21086;44.780;17.194;2024-01-15T11:06:55;128.18;;;71.30;;
34876;SDS011;21086;44.780;17.194;2024-01-15T11:09:23;126.80;;;67.22;;
34876;SDS011;21086;44.780;17.194;2024-01-15T11:11:52;105.60;;;61.08;;
34876;SDS011;21086;44.780;17.194;2024-01-15T11:17:06;115.95;;;64.47;;
34876;SDS011;21086;44.780;17.194;2024-01-15T11:25:14;103.07;;;57.15;;
34876;SDS011;21086;44.780;17.194;2024-01-15T11:27:48;99.18;;;54.40;;
34876;SDS011;21086;44.780;17.194;2024-01-15T11:30:24;100.28;;;56.67;;
34876;SDS011;21086;44.780;17.194;2024-01-15T11:32:52;88.97;;;50.42;;
34876;SDS011;21086;44.780;17.194;2024-01-15T11:35:20;130.18;;;69.15;;
34876;SDS011;21086;44.780;17.194;2024-01-15T11:43:00;102.93;;;61.30;;
34876;SDS011;21086;44.780;17.194;2024-01-15T11:45:29;112.20;;;62.83;;
34876;SDS011;21086;44.780;17.194;2024-01-15T11:50:41;123.40;;;71.20;;
34876;SDS011;21086;44.780;17.194;2024-01-15T11:55:58;135.73;;;76.47;;
34876;SDS011;21086;44.780;17.194;2024-01-15T11:58:28;139.35;;;76.32;;
34876;SDS011;21086;44.780;17.194;2024-01-15T12:00:55;119.93;;;68.43;;
34876;SDS011;21086;44.780;17.194;2024-01-15T12:03:23;123.30;;;66.95;;
34876;SDS011;21086;44.780;17.194;2024-01-15T12:05:54;123.50;;;68.28;;
34876;SDS011;21086;44.780;17.194;2024-01-15T12:08:22;127.45;;;75.88;;
34876;SDS011;21086;44.780;17.194;2024-01-15T12:10:50;129.77;;;72.30;;
34876;SDS011;21086;44.780;17.194;2024-01-15T12:13:17;128.98;;;72.60;;
34876;SDS011;21086;44.780;17.194;2024-01-15T12:15:46;130.70;;;74.55;;
34876;SDS011;21086;44.780;17.194;2024-01-15T12:18:15;151.60;;;83.15;;
34876;SDS011;21086;44.780;17.194;2024-01-15T12:20:45;128.68;;;70.00;;
34876;SDS011;21086;44.780;17.194;2024-01-15T12:23:16;120.70;;;66.90;;
34876;SDS011;21086;44.780;17.194;2024-01-15T12:25:44;108.72;;;64.90;;
34876;SDS011;21086;44.780;17.194;2024-01-15T12:28:12;117.47;;;63.88;;
34876;SDS011;21086;44.780;17.194;2024-01-15T12:30:39;113.75;;;63.05;;
34876;SDS011;21086;44.780;17.194;2024-01-15T12:33:07;109.65;;;61.17;;
34876;SDS011;21086;44.780;17.194;2024-01-15T12:35:36;102.25;;;60.58;;
34876;SDS011;21086;44.780;17.194;2024-01-15T12:38:03;106.28;;;62.20;;
34876;SDS011;21086;44.780;17.194;2024-01-15T12:40:32;108.28;;;65.55;;
34876;SDS011;21086;44.780;17.194;2024-01-15T12:43:02;121.40;;;68.63;;
34876;SDS011;21086;44.780;17.194;2024-01-15T12:45:29;126.20;;;70.97;;
34876;SDS011;21086;44.780;17.194;2024-01-15T12:47:58;99.45;;;59.50;;
34876;SDS011;21086;44.780;17.194;2024-01-15T12:50:26;105.97;;;60.72;;
34876;SDS011;21086;44.780;17.194;2024-01-15T12:52:53;104.50;;;60.33;;
34876;SDS011;21086;44.780;17.194;2024-01-15T12:55:20;107.85;;;62.55;;
34876;SDS011;21086;44.780;17.194;2024-01-15T12:57:48;130.45;;;71.97;;
34876;SDS011;21086;44.780;17.194;2024-01-15T13:00:19;146.90;;;84.43;;
34876;SDS011;21086;44.780;17.194;2024-01-15T13:02:46;124.38;;;75.10;;
34876;SDS011;21086;44.780;17.194;2024-01-15T13:05:13;141.35;;;81.32;;
34876;SDS011;21086;44.780;17.194;2024-01-15T13:07:42;146.68;;;88.45;;
34876;SDS011;21086;44.780;17.194;2024-01-15T13:10:10;150.55;;;91.22;;
34876;SDS011;21086;44.780;17.194;2024-01-15T13:12:38;157.15;;;89.25;;
34876;SDS011;21086;44.780;17.194;2024-01-15T13:15:06;169.60;;;94.15;;
34876;SDS011;21086;44.780;17.194;2024-01-15T13:17:40;139.82;;;82.05;;
34876;SDS011;21086;44.780;17.194;2024-01-15T13:20:08;139.93;;;76.57;;
34876;SDS011;21086;44.780;17.194;2024-01-15T13:22:36;135.88;;;77.70;;
34876;SDS011;21086;44.780;17.194;2024-01-15T13:25:06;148.52;;;85.20;;
34876;SDS011;21086;44.780;17.194;2024-01-15T13:27:34;133.80;;;76.55;;
34876;SDS011;21086;44.780;17.194;2024-01-15T13:30:03;140.68;;;80.47;;
34876;SDS011;21086;44.780;17.194;2024-01-15T13:32:31;159.88;;;87.80;;
34876;SDS011;21086;44.780;17.194;2024-01-15T13:34:59;166.98;;;90.75;;
34876;SDS011;21086;44.780;17.194;2024-01-15T13:37:26;124.60;;;68.03;;
34876;SDS011;21086;44.780;17.194;2024-01-15T13:39:54;110.38;;;59.47;;
34876;SDS011;21086;44.780;17.194;2024-01-15T13:42:21;80.85;;;47.10;;
34876;SDS011;21086;44.780;17.194;2024-01-15T13:44:49;70.82;;;42.22;;
34876;SDS011;21086;44.780;17.194;2024-01-15T13:47:16;71.25;;;41.90;;
34876;SDS011;21086;44.780;17.194;2024-01-15T13:49:43;71.82;;;40.67;;
34876;SDS011;21086;44.780;17.194;2024-01-15T13:52:10;73.07;;;40.63;;
34876;SDS011;21086;44.780;17.194;2024-01-15T13:54:39;80.72;;;44.30;;
34876;SDS011;21086;44.780;17.194;2024-01-15T13:57:16;77.30;;;41.85;;
34876;SDS011;21086;44.780;17.194;2024-01-15T13:59:45;66.88;;;38.60;;
34876;SDS011;21086;44.780;17.194;2024-01-15T14:02:12;78.47;;;40.75;;
34876;SDS011;21086;44.780;17.194;2024-01-15T14:04:47;74.25;;;41.10;;
34876;SDS011;21086;44.780;17.194;2024-01-15T14:07:15;74.18;;;40.97;;
34876;SDS011;21086;44.780;17.194;2024-01-15T14:09:43;68.03;;;39.45;;
34876;SDS011;21086;44.780;17.194;2024-01-15T14:12:10;71.60;;;39.30;;
34876;SDS011;21086;44.780;17.194;2024-01-15T14:14:38;64.40;;;37.47;;
34876;SDS011;21086;44.780;17.194;2024-01-15T14:17:06;68.47;;;39.85;;
34876;SDS011;21086;44.780;17.194;2024-01-15T14:19:34;62.60;;;37.60;;
34876;SDS011;21086;44.780;17.194;2024-01-15T14:22:02;60.50;;;36.20;;
34876;SDS011;21086;44.780;17.194;2024-01-15T14:24:29;66.43;;;35.80;;
34876;SDS011;21086;44.780;17.194;2024-01-15T14:26:56;59.15;;;33.05;;
34876;SDS011;21086;44.780;17.194;2024-01-15T14:29:23;52.63;;;32.45;;
34876;SDS011;21086;44.780;17.194;2024-01-15T14:31:52;61.85;;;34.78;;